Time;durP1;ratioP1;P1;durP2;ratioP2;P2;SDS_P1;SDS_P2;PMS_P1;PMS_P2;Temp;Humidity;BMP_temperature;BMP_pressure;BME280_temperature;BME280_humidity;BME280_pressure;Samples;Min_cycle;Max_cycle;Signal;HPM_P1;HPM_P2
2023/01/28 00:00:32;;;;;;;19.27;9.93;;;1.50;99.90;;;;;;5092268;28;20430;-72
2023/01/28 00:02:58;;;;;;;17.63;9.20;;;1.60;99.90;;;;;;5098917;28;20024;-73
2023/01/28 00:05:24;;;;;;;20.15;9.73;;;1.60;99.90;;;;;;5077656;28;20043;-74
2023/01/28 00:07:50;;;;;;;19.73;11.02;;;1.50;99.90;;;;;;5098084;28;20109;-72
2023/01/28 00:10:15;;;;;;;19.48;8.80;;;1.40;99.90;;;;;;5095315;28;20067;-72
2023/01/28 00:12:41;;;;;;;20.38;9.45;;;1.50;99.90;;;;;;5096059;28;20601;-72
2023/01/28 00:15:07;;;;;;;17.38;8.82;;;1.40;99.90;;;;;;5095596;28;20126;-72
2023/01/28 00:17:33;;;;;;;24.38;10.90;;;1.50;99.90;;;;;;5094809;28;20016;-72
2023/01/28 00:19:59;;;;;;;16.15;8.68;;;1.40;99.90;;;;;;5096196;28;20563;-72
2023/01/28 00:22:24;;;;;;;17.00;8.27;;;1.40;99.90;;;;;;5098023;28;20023;-72
2023/01/28 00:24:50;;;;;;;18.65;9.43;;;1.30;99.90;;;;;;5098976;28;20028;-72
2023/01/28 00:27:15;;;;;;;16.92;8.32;;;1.40;99.90;;;;;;5096534;28;20031;-72
2023/01/28 00:29:41;;;;;;;21.65;10.10;;;1.50;99.90;;;;;;5095911;28;20040;-72
2023/01/28 00:32:07;;;;;;;19.70;10.35;;;1.50;99.90;;;;;;5096020;28;20027;-72
2023/01/28 00:34:32;;;;;;;18.45;9.77;;;1.50;99.90;;;;;;5096489;28;20034;-72
2023/01/28 00:36:58;;;;;;;18.35;9.10;;;1.30;99.90;;;;;;5098364;28;20082;-72
2023/01/28 00:39:25;;;;;;;17.73;10.60;;;1.20;99.90;;;;;;5091605;28;20111;-72
2023/01/28 00:41:51;;;;;;;22.70;9.75;;;1.10;99.90;;;;;;5098377;28;20031;-72
2023/01/28 00:44:18;;;;;;;16.58;9.02;;;1.10;99.90;;;;;;5095093;28;20031;-72
2023/01/28 00:46:43;;;;;;;16.73;8.88;;;0.90;99.90;;;;;;5096217;28;20118;-72
2023/01/28 00:49:09;;;;;;;18.70;8.98;;;1.10;99.90;;;;;;5099503;28;20267;-72
2023/01/28 00:51:35;;;;;;;19.35;9.35;;;1.10;99.90;;;;;;5095507;28;20034;-72
2023/01/28 00:54:01;;;;;;;15.40;7.97;;;1.10;99.90;;;;;;5099203;28;20432;-72
2023/01/28 00:56:27;;;;;;;18.60;9.10;;;1.10;99.90;;;;;;5079089;28;20564;-72
2023/01/28 00:58:53;;;;;;;17.85;9.18;;;1.10;99.90;;;;;;5101889;28;20023;-72
2023/01/28 01:01:24;;;;;;;19.30;9.38;;;1.20;99.90;;;;;;5104210;28;20478;-72
2023/01/28 01:04:02;;;;;;;13.73;8.20;;;0.90;99.90;;;;;;5102157;28;20043;-72
2023/01/28 01:06:34;;;;;;;21.35;9.38;;;1.00;99.90;;;;;;5102005;28;20023;-72
2023/01/28 01:09:00;;;;;;;20.85;8.90;;;0.90;99.90;;;;;;5097137;28;20028;-72
2023/01/28 01:11:26;;;;;;;18.40;8.95;;;1.10;99.90;;;;;;5103376;28;20461;-72
2023/01/28 01:13:54;;;;;;;18.20;8.40;;;0.90;99.90;;;;;;5098020;28;20051;-72
2023/01/28 01:16:22;;;;;;;20.08;10.18;;;1.00;99.90;;;;;;5101958;28;20031;-72
2023/01/28 01:18:50;;;;;;;21.83;9.13;;;1.00;99.90;;;;;;5097471;28;20161;-71
2023/01/28 01:21:18;;;;;;;18.85;9.57;;;1.20;99.90;;;;;;5098215;28;20035;-72
2023/01/28 01:23:45;;;;;;;18.45;10.55;;;1.30;99.90;;;;;;5099219;28;20455;-72
2023/01/28 01:26:11;;;;;;;21.40;9.18;;;1.30;99.90;;;;;;5102729;28;20101;-72
2023/01/28 01:28:37;;;;;;;20.42;10.05;;;1.20;99.90;;;;;;5102812;28;20138;-72
2023/01/28 01:31:06;;;;;;;21.17;10.73;;;1.20;99.90;;;;;;5099990;28;20537;-72
2023/01/28 01:33:33;;;;;;;23.67;12.82;;;1.10;99.90;;;;;;5100603;28;20823;-72
2023/01/28 01:35:58;;;;;;;20.52;9.93;;;1.10;99.90;;;;;;5101739;28;20038;-72
2023/01/28 01:38:24;;;;;;;21.38;10.63;;;1.20;99.90;;;;;;5102685;28;20107;-72
2023/01/28 01:40:50;;;;;;;19.40;10.30;;;1.10;99.90;;;;;;5099375;28;20458;-72
2023/01/28 01:43:18;;;;;;;18.80;9.88;;;1.00;99.90;;;;;;5095944;28;20035;-72
2023/01/28 01:45:57;;;;;;;17.95;9.20;;;1.00;99.90;;;;;;5095226;28;20397;-72
2023/01/28 01:48:32;;;;;;;18.70;9.90;;;0.90;99.90;;;;;;5099039;28;20024;-72
2023/01/28 01:51:09;;;;;;;20.27;9.85;;;0.70;99.90;;;;;;5097597;28;20040;-72
2023/01/28 01:53:39;;;;;;;20.42;9.65;;;0.80;99.90;;;;;;5107582;28;20039;-71
2023/01/28 01:56:09;;;;;;;19.70;9.25;;;0.60;99.90;;;;;;5101108;28;20032;-72
2023/01/28 01:58:38;;;;;;;16.73;10.02;;;0.50;99.90;;;;;;5102368;28;20027;-72
2023/01/28 02:01:06;;;;;;;17.05;9.45;;;0.60;99.90;;;;;;5101194;28;20107;-72
2023/01/28 02:03:56;;;;;;;20.13;10.68;;;0.80;99.90;;;;;;5101777;28;20027;-72
2023/01/28 02:06:22;;;;;;;18.70;9.35;;;1.00;99.90;;;;;;5085195;28;20401;-72
2023/01/28 02:08:48;;;;;;;19.40;9.95;;;0.90;99.90;;;;;;5103413;28;20464;-72
2023/01/28 02:11:16;;;;;;;19.73;9.25;;;0.90;99.90;;;;;;5100257;28;20114;-72
2023/01/28 02:13:46;;;;;;;19.92;9.18;;;0.80;99.90;;;;;;5102604;28;20119;-72
2023/01/28 02:16:12;;;;;;;19.30;8.88;;;1.00;99.90;;;;;;5106256;28;20034;-71
2023/01/28 02:18:38;;;;;;;20.23;9.68;;;1.10;99.90;;;;;;5107204;28;20097;-72
2023/01/28 02:21:39;;;;;;;20.48;10.20;;;1.10;99.90;;;;;;5105010;28;20064;-71
2023/01/28 02:24:17;;;;;;;16.52;8.70;;;1.20;99.90;;;;;;5094894;28;20046;-71
2023/01/28 02:27:10;;;;;;;23.73;10.80;;;1.20;99.90;;;;;;5103431;28;20023;-71
2023/01/28 02:29:51;;;;;;;18.40;9.65;;;1.20;99.90;;;;;;5107159;28;20067;-72
2023/01/28 02:32:24;;;;;;;23.17;9.85;;;1.10;99.90;;;;;;5104867;28;20553;-72
2023/01/28 02:34:59;;;;;;;17.17;9.18;;;1.10;99.90;;;;;;5101318;28;20023;-72
2023/01/28 02:37:45;;;;;;;18.67;9.40;;;1.10;99.90;;;;;;5106028;28;20043;-72
2023/01/28 02:40:22;;;;;;;17.55;9.45;;;1.10;99.90;;;;;;5102911;28;20044;-72
2023/01/28 02:42:47;;;;;;;19.40;9.30;;;0.90;99.90;;;;;;5106269;28;20496;-72
2023/01/28 02:48:34;;;;;;;21.00;11.27;;;0.90;99.90;;;;;;5027481;28;20045;-72
2023/01/28 02:51:14;;;;;;;18.40;9.57;;;0.90;99.90;;;;;;5028868;28;20056;-72
2023/01/28 02:53:50;;;;;;;17.25;9.98;;;1.00;99.90;;;;;;5068181;28;20039;-72
2023/01/28 02:56:36;;;;;;;23.42;10.40;;;1.00;99.90;;;;;;5107740;28;20030;-72
2023/01/28 02:59:29;;;;;;;17.30;10.02;;;1.10;99.90;;;;;;5062082;28;20062;-72
2023/01/28 03:02:21;;;;;;;20.35;9.98;;;1.10;99.90;;;;;;5103829;28;20031;-72
2023/01/28 03:04:56;;;;;;;17.40;9.68;;;1.20;99.90;;;;;;5102173;28;20035;-72
2023/01/28 03:07:22;;;;;;;;;;;1.10;99.90;;;;;;5105347;28;20023;-72
2023/01/28 03:09:50;;;;;;;20.33;10.70;;;1.10;99.90;;;;;;5102294;28;19955;-72
2023/01/28 03:37:59;;;;;;;25.25;11.02;;;1.00;99.90;;;;;;5103521;28;20101;-72
2023/01/28 03:40:26;;;;;;;18.98;10.63;;;1.00;99.90;;;;;;5099205;28;20052;-72
2023/01/28 03:42:53;;;;;;;17.95;10.02;;;1.00;99.90;;;;;;5104882;28;20028;-72
2023/01/28 03:45:20;;;;;;;21.40;10.52;;;1.00;99.90;;;;;;5104222;28;20050;-72
2023/01/28 03:47:46;;;;;;;23.83;12.15;;;1.00;99.90;;;;;;5101685;28;20383;-72
2023/01/28 03:50:12;;;;;;;21.08;11.25;;;1.00;99.90;;;;;;5108563;28;20043;-71
2023/01/28 03:52:37;;;;;;;20.90;11.63;;;1.00;99.90;;;;;;5102234;28;20089;-72
2023/01/28 03:55:12;;;;;;;18.38;9.95;;;0.80;99.90;;;;;;5102746;28;20057;-72
2023/01/28 03:57:38;;;;;;;24.67;10.75;;;0.80;99.90;;;;;;5103350;27;20049;-73
2023/01/28 04:00:05;;;;;;;20.33;11.32;;;0.80;99.90;;;;;;5108237;27;20043;-73
2023/01/28 04:02:31;;;;;;;18.45;10.07;;;0.80;99.90;;;;;;5101982;28;20378;-70
2023/01/28 04:04:57;;;;;;;20.95;10.65;;;0.80;99.90;;;;;;5098422;28;20028;-71
2023/01/28 04:07:23;;;;;;;24.77;12.20;;;0.70;99.90;;;;;;5097605;28;20512;-72
2023/01/28 04:09:49;;;;;;;24.40;12.15;;;0.70;99.90;;;;;;5096768;28;20032;-71
2023/01/28 04:12:14;;;;;;;19.20;10.75;;;0.60;99.90;;;;;;5099560;28;20042;-71
2023/01/28 04:14:40;;;;;;;21.70;11.75;;;0.60;99.90;;;;;;5098819;28;20031;-73
2023/01/28 04:17:09;;;;;;;19.98;10.18;;;0.60;99.90;;;;;;5097173;28;20435;-71
2023/01/28 04:19:36;;;;;;;20.27;10.45;;;0.50;99.90;;;;;;5101326;28;20026;-71
2023/01/28 04:22:08;;;;;;;22.13;11.45;;;0.50;99.90;;;;;;5077040;28;20562;-70
2023/01/28 04:24:34;;;;;;;23.75;12.95;;;0.50;99.90;;;;;;5096484;28;20417;-70
2023/01/28 04:27:00;;;;;;;20.70;11.00;;;0.40;99.90;;;;;;5094585;28;20028;-71
2023/01/28 04:29:25;;;;;;;23.52;11.90;;;0.40;99.90;;;;;;5096769;28;20089;-70
2023/01/28 04:31:51;;;;;;;20.23;10.50;;;0.40;99.90;;;;;;5094656;28;20119;-70
2023/01/28 04:34:18;;;;;;;25.08;10.05;;;0.50;99.90;;;;;;5100576;28;20549;-70
2023/01/28 04:36:44;;;;;;;22.65;10.70;;;0.40;99.90;;;;;;5099782;28;20211;-70
2023/01/28 04:39:09;;;;;;;22.23;11.68;;;0.50;99.90;;;;;;5098819;28;20024;-70
2023/01/28 04:41:35;;;;;;;21.63;10.55;;;0.40;99.90;;;;;;5097378;28;20366;-70
2023/01/28 04:44:01;;;;;;;21.38;10.75;;;0.50;99.90;;;;;;5094224;28;20414;-70
2023/01/28 04:46:26;;;;;;;25.90;12.02;;;0.50;99.90;;;;;;5096207;28;20489;-70
2023/01/28 04:48:52;;;;;;;23.42;11.02;;;0.50;99.90;;;;;;5095479;28;20040;-70
2023/01/28 04:51:18;;;;;;;27.02;11.38;;;0.50;99.90;;;;;;5099356;28;20032;-70
2023/01/28 04:53:43;;;;;;;24.30;12.30;;;0.30;99.90;;;;;;5099713;28;20039;-70
2023/01/28 04:56:09;;;;;;;20.48;11.13;;;0.20;99.90;;;;;;5098513;28;20072;-70
2023/01/28 04:58:35;;;;;;;21.45;11.43;;;0.20;99.90;;;;;;5098598;28;20023;-70
2023/01/28 05:01:00;;;;;;;22.98;11.15;;;0.30;99.90;;;;;;5102295;28;20068;-70
2023/01/28 05:03:26;;;;;;;23.52;11.07;;;0.40;99.90;;;;;;5096712;28;20035;-70
2023/01/28 05:05:52;;;;;;;19.48;10.15;;;0.30;99.90;;;;;;5099441;28;20038;-70
2023/01/28 05:08:18;;;;;;;23.38;11.57;;;0.30;99.90;;;;;;5099947;28;20394;-70
2023/01/28 05:10:44;;;;;;;29.98;13.00;;;0.40;99.90;;;;;;5097015;28;20043;-70
2023/01/28 05:13:09;;;;;;;23.13;11.27;;;0.50;99.90;;;;;;5096721;28;20110;-70
2023/01/28 05:15:35;;;;;;;21.42;11.15;;;0.50;99.90;;;;;;5092643;28;20343;-70
2023/01/28 05:18:01;;;;;;;23.33;11.98;;;0.60;99.90;;;;;;5095004;28;20082;-70
2023/01/28 05:20:26;;;;;;;26.23;11.55;;;0.40;99.90;;;;;;5099621;28;20024;-70
2023/01/28 05:22:52;;;;;;;18.75;10.65;;;0.30;99.90;;;;;;5095197;28;20107;-70
2023/01/28 05:25:18;;;;;;;22.52;10.63;;;0.20;99.90;;;;;;5094902;28;20531;-70
2023/01/28 05:27:51;;;;;;;22.17;10.52;;;0.20;99.90;;;;;;5101263;28;20118;-70
2023/01/28 05:30:18;;;;;;;22.60;10.02;;;0.20;99.90;;;;;;5098451;28;20110;-70
2023/01/28 05:32:43;;;;;;;21.75;10.68;;;0.20;99.90;;;;;;5096093;28;20582;-70
2023/01/28 05:35:09;;;;;;;18.00;9.18;;;0.30;99.90;;;;;;5096959;28;20028;-70
2023/01/28 05:37:35;;;;;;;17.50;9.00;;;0.20;99.90;;;;;;5100643;28;20051;-70
2023/01/28 05:40:00;;;;;;;19.92;10.18;;;0.10;99.90;;;;;;5096293;28;20032;-70
2023/01/28 05:42:26;;;;;;;22.77;10.48;;;-0.10;99.90;;;;;;5103213;28;20277;-70
2023/01/28 05:44:51;;;;;;;20.05;9.68;;;-0.20;99.90;;;;;;5102170;28;20098;-70
2023/01/28 05:47:17;;;;;;;20.33;10.70;;;-0.30;99.90;;;;;;5103703;28;20312;-70
2023/01/28 05:49:43;;;;;;;20.90;9.95;;;-0.30;99.90;;;;;;5099545;28;20107;-70
2023/01/28 05:52:08;;;;;;;21.92;10.75;;;-0.10;99.90;;;;;;5094952;28;20043;-70
2023/01/28 05:54:34;;;;;;;15.35;8.15;;;-0.10;99.90;;;;;;5102867;28;20100;-70
2023/01/28 05:57:00;;;;;;;18.48;9.60;;;0.00;99.90;;;;;;5100515;28;20027;-70
2023/01/28 05:59:25;;;;;;;18.75;8.90;;;0.10;99.90;;;;;;5101739;28;20107;-70
2023/01/28 06:01:51;;;;;;;17.15;8.55;;;0.10;99.90;;;;;;5100310;28;20142;-70
2023/01/28 06:04:18;;;;;;;18.15;9.27;;;0.10;99.90;;;;;;5097988;28;20023;-70
2023/01/28 06:06:44;;;;;;;18.90;9.55;;;0.20;99.90;;;;;;5099191;28;20032;-70
2023/01/28 06:09:10;;;;;;;18.05;10.25;;;0.30;99.90;;;;;;5098326;28;20043;-70
2023/01/28 06:11:36;;;;;;;18.55;10.02;;;0.00;99.90;;;;;;5101069;28;20049;-70
2023/01/28 06:14:01;;;;;;;20.45;9.95;;;0.10;99.90;;;;;;5101341;27;20024;-70
2023/01/28 06:16:27;;;;;;;23.48;10.77;;;0.30;99.90;;;;;;5099949;28;20045;-70
2023/01/28 06:18:52;;;;;;;31.00;22.17;;;0.30;99.90;;;;;;5103486;28;20059;-70
2023/01/28 06:21:18;;;;;;;28.13;15.68;;;0.30;99.90;;;;;;5097372;28;20035;-70
2023/01/28 06:23:44;;;;;;;19.55;10.68;;;0.20;99.90;;;;;;5094789;28;20459;-70
2023/01/28 06:26:09;;;;;;;21.35;11.63;;;0.20;99.90;;;;;;5097589;28;20051;-70
2023/01/28 06:28:35;;;;;;;20.90;9.00;;;-0.10;99.90;;;;;;5101154;28;20059;-70
2023/01/28 06:31:01;;;;;;;19.70;9.20;;;-0.20;99.90;;;;;;5102886;28;20532;-70
2023/01/28 06:33:27;;;;;;;17.05;8.55;;;-0.40;99.90;;;;;;5103430;28;20089;-70
2023/01/28 06:35:53;;;;;;;17.00;7.45;;;-0.50;99.90;;;;;;5099928;28;20103;-70
2023/01/28 06:38:19;;;;;;;17.08;8.77;;;-0.50;99.90;;;;;;5093085;28;20062;-70
2023/01/28 06:40:50;;;;;;;20.05;9.82;;;-0.40;99.90;;;;;;5093686;28;20032;-70
2023/01/28 06:43:17;;;;;;;16.80;9.73;;;-0.40;99.90;;;;;;5099493;28;20594;-70
2023/01/28 06:45:42;;;;;;;18.75;8.73;;;-0.30;99.90;;;;;;5104021;28;20534;-70
2023/01/28 06:48:08;;;;;;;18.67;9.23;;;0.00;99.90;;;;;;5101812;28;20024;-70
2023/01/28 06:50:33;;;;;;;17.70;8.98;;;0.00;99.90;;;;;;5105566;28;20074;-70
2023/01/28 06:52:59;;;;;;;21.73;7.85;;;-0.10;99.90;;;;;;5097284;28;20028;-70
2023/01/28 06:55:25;;;;;;;17.75;8.60;;;-0.10;99.90;;;;;;5095111;28;20063;-70
2023/01/28 06:57:50;;;;;;;21.00;10.45;;;-0.10;99.90;;;;;;5103439;28;20051;-71
2023/01/28 07:00:16;;;;;;;17.13;8.98;;;-0.10;99.90;;;;;;5100098;28;20055;-70
2023/01/28 07:02:42;;;;;;;16.55;8.85;;;-0.10;99.90;;;;;;5106372;28;20134;-71
2023/01/28 07:05:08;;;;;;;22.05;9.27;;;-0.10;99.90;;;;;;5099113;28;20110;-71
2023/01/28 07:07:34;;;;;;;17.80;8.48;;;0.00;99.90;;;;;;5104204;27;20067;-70
2023/01/28 07:09:59;;;;;;;15.00;8.00;;;0.10;99.90;;;;;;5095628;28;20457;-70
2023/01/28 07:12:25;;;;;;;20.08;9.32;;;0.10;99.90;;;;;;5097546;28;20028;-70
2023/01/28 07:14:51;;;;;;;14.70;7.50;;;-0.10;99.90;;;;;;5099068;28;20020;-70
2023/01/28 07:17:16;;;;;;;16.55;8.38;;;0.00;99.90;;;;;;5099008;28;20068;-71
2023/01/28 07:19:42;;;;;;;16.02;7.85;;;0.10;99.90;;;;;;5100367;28;20449;-70
2023/01/28 07:22:08;;;;;;;15.48;8.38;;;0.00;99.90;;;;;;5097870;28;20359;-70
2023/01/28 07:24:33;;;;;;;13.10;7.97;;;0.10;99.90;;;;;;5100222;28;20027;-70
2023/01/28 07:26:59;;;;;;;18.00;8.52;;;0.10;99.90;;;;;;5104632;28;20122;-70
2023/01/28 07:29:25;;;;;;;15.02;8.20;;;0.10;99.90;;;;;;5096668;28;20036;-70
2023/01/28 07:31:50;;;;;;;15.68;7.95;;;-0.20;99.90;;;;;;5101093;28;20028;-70
2023/01/28 07:34:16;;;;;;;17.00;8.93;;;-0.30;99.90;;;;;;5102336;28;20034;-70
2023/01/28 07:36:42;;;;;;;16.63;8.52;;;-0.30;99.90;;;;;;5103784;28;20119;-70
2023/01/28 07:39:07;;;;;;;16.48;8.00;;;-0.30;99.90;;;;;;5097565;28;20044;-69
2023/01/28 07:41:33;;;;;;;16.30;7.45;;;-0.10;99.90;;;;;;5104122;28;20023;-69
2023/01/28 07:43:58;;;;;;;16.63;8.73;;;0.10;99.90;;;;;;5096688;28;20199;-70
2023/01/28 07:46:24;;;;;;;22.10;9.43;;;0.30;99.60;;;;;;5090465;28;20039;-70
2023/01/28 07:48:50;;;;;;;17.10;8.73;;;0.40;99.30;;;;;;5093492;28;20335;-70
2023/01/28 07:51:16;;;;;;;17.27;7.80;;;0.40;99.50;;;;;;5097427;28;20023;-70
2023/01/28 07:53:41;;;;;;;18.92;8.85;;;0.30;99.90;;;;;;5090493;28;20051;-70
2023/01/28 07:56:07;;;;;;;17.63;8.55;;;0.20;99.90;;;;;;5098221;28;20073;-70
2023/01/28 07:58:33;;;;;;;14.93;7.78;;;0.30;99.90;;;;;;5091190;28;20020;-70
2023/01/28 08:01:00;;;;;;;20.63;8.70;;;0.10;99.90;;;;;;5093550;28;20058;-70
2023/01/28 08:03:27;;;;;;;16.42;9.18;;;0.30;99.90;;;;;;5091554;28;20070;-70
2023/01/28 08:05:54;;;;;;;17.20;9.13;;;0.20;99.90;;;;;;5094171;27;20111;-71
2023/01/28 08:08:25;;;;;;;14.85;7.82;;;0.10;99.90;;;;;;5086565;28;20030;-71
2023/01/28 08:10:51;;;;;;;19.92;7.97;;;0.00;99.90;;;;;;5096960;27;20036;-71
2023/01/28 08:13:17;;;;;;;19.58;7.40;;;0.10;99.90;;;;;;5096874;28;20084;-71
2023/01/28 08:15:44;;;;;;;14.35;7.35;;;0.10;99.90;;;;;;5098962;28;20040;-71
2023/01/28 08:18:14;;;;;;;17.88;9.35;;;0.10;99.90;;;;;;5095573;28;20057;-71
2023/01/28 08:20:42;;;;;;;14.70;7.80;;;0.30;99.90;;;;;;5092613;28;20098;-71
2023/01/28 08:23:13;;;;;;;20.23;10.35;;;0.30;99.90;;;;;;5096088;28;20388;-71
2023/01/28 08:25:39;;;;;;;17.42;8.50;;;0.30;99.90;;;;;;5092368;28;20060;-71
2023/01/28 08:28:05;;;;;;;17.95;8.88;;;0.40;99.90;;;;;;5089993;28;20528;-71
2023/01/28 08:30:32;;;;;;;17.90;8.07;;;0.30;99.90;;;;;;5093839;27;20067;-71
2023/01/28 08:32:59;;;;;;;18.17;9.15;;;0.40;99.90;;;;;;5091646;28;20785;-71
2023/01/28 08:35:28;;;;;;;16.58;7.47;;;0.50;99.90;;;;;;5094026;28;20114;-71
2023/01/28 08:37:54;;;;;;;15.15;7.30;;;0.30;99.90;;;;;;5093778;28;20051;-71
2023/01/28 08:40:20;;;;;;;16.40;8.15;;;0.30;99.90;;;;;;5096197;28;20550;-71
2023/01/28 08:42:50;;;;;;;14.80;7.57;;;0.30;99.90;;;;;;5096428;28;20023;-71
2023/01/28 08:45:16;;;;;;;21.60;7.10;;;0.40;99.90;;;;;;5099383;28;20066;-71
2023/01/28 08:47:49;;;;;;;13.98;7.40;;;0.40;99.90;;;;;;5097246;28;20403;-71
2023/01/28 08:50:16;;;;;;;16.35;7.50;;;0.40;99.90;;;;;;5094243;28;20397;-70
2023/01/28 08:52:43;;;;;;;16.27;7.55;;;0.60;99.90;;;;;;5095052;28;20032;-71
2023/01/28 08:55:10;;;;;;;14.85;7.63;;;0.70;99.90;;;;;;5097555;28;20024;-71
2023/01/28 08:57:35;;;;;;;15.90;6.80;;;0.50;99.90;;;;;;5096062;28;20584;-71
2023/01/28 09:00:01;;;;;;;13.70;5.80;;;0.30;99.90;;;;;;5105804;27;20055;-71
2023/01/28 09:02:27;;;;;;;16.08;7.30;;;0.30;99.90;;;;;;5096937;27;20110;-71
2023/01/28 09:04:52;;;;;;;13.40;6.80;;;0.30;99.90;;;;;;5101311;28;20080;-71
2023/01/28 09:07:21;;;;;;;14.82;7.13;;;0.40;99.90;;;;;;5096388;28;20042;-71
2023/01/28 09:09:46;;;;;;;14.93;7.28;;;0.40;99.90;;;;;;5097288;27;20047;-71
2023/01/28 09:12:12;;;;;;;14.43;7.18;;;0.50;99.90;;;;;;5099029;27;20373;-71
2023/01/28 09:14:38;;;;;;;14.32;7.43;;;0.60;99.90;;;;;;5098284;28;20039;-72
2023/01/28 09:17:04;;;;;;;14.70;8.32;;;0.60;99.90;;;;;;5101387;28;20111;-71
2023/01/28 09:19:29;;;;;;;15.23;7.40;;;0.60;99.80;;;;;;5092999;28;20049;-71
2023/01/28 09:21:55;;;;;;;14.07;5.93;;;0.70;99.90;;;;;;5101022;28;20536;-71
2023/01/28 09:24:21;;;;;;;11.63;7.03;;;0.70;99.90;;;;;;5104491;28;20035;-71
2023/01/28 09:26:50;;;;;;;13.70;6.80;;;0.50;99.70;;;;;;5111746;28;20297;-71
2023/01/28 09:29:15;;;;;;;11.88;5.43;;;0.70;99.90;;;;;;5121346;28;20061;-71
2023/01/28 09:31:42;;;;;;;9.68;5.45;;;0.60;99.50;;;;;;5105914;28;20032;-72
2023/01/28 09:34:10;;;;;;;10.73;5.95;;;0.70;99.40;;;;;;5097808;28;20039;-72
2023/01/28 09:36:36;;;;;;;11.30;5.97;;;0.80;99.70;;;;;;5098284;28;20127;-72
2023/01/28 09:39:02;;;;;;;14.13;5.85;;;0.80;99.20;;;;;;5097627;28;20154;-71
2023/01/28 09:41:33;;;;;;;10.40;4.68;;;0.80;99.30;;;;;;5097916;28;20448;-72
2023/01/28 09:44:33;;;;;;;9.98;4.60;;;0.80;99.10;;;;;;5097073;28;20031;-71
2023/01/28 09:47:04;;;;;;;11.70;4.95;;;0.80;98.80;;;;;;5095104;28;20045;-70
2023/01/28 09:49:44;;;;;;;11.20;5.22;;;0.90;98.80;;;;;;5098850;28;20051;-71
2023/01/28 09:52:17;;;;;;;6.53;3.40;;;0.70;99.20;;;;;;5097039;28;20047;-73
2023/01/28 09:54:48;;;;;;;8.05;4.07;;;0.70;97.60;;;;;;5098359;28;20024;-73
2023/01/28 09:57:28;;;;;;;9.10;3.85;;;0.90;97.40;;;;;;5098464;28;20084;-72
2023/01/28 09:59:54;;;;;;;8.00;3.33;;;1.00;96.60;;;;;;5098025;28;20354;-73
2023/01/28 10:02:38;;;;;;;6.63;3.10;;;1.10;96.70;;;;;;5095307;28;20068;-72
2023/01/28 10:05:12;;;;;;;8.02;4.00;;;1.20;96.50;;;;;;5095624;28;20419;-73
2023/01/28 10:07:50;;;;;;;7.15;3.58;;;1.20;96.60;;;;;;5096962;28;20035;-73
2023/01/28 10:10:25;;;;;;;9.05;3.42;;;1.20;97.40;;;;;;5099433;28;20059;-72
2023/01/28 10:12:51;;;;;;;7.40;3.00;;;1.40;96.20;;;;;;5099442;28;20027;-74
2023/01/28 10:15:19;;;;;;;8.13;3.97;;;1.60;95.90;;;;;;5102080;28;20032;-73
2023/01/28 10:17:49;;;;;;;9.88;3.88;;;1.70;95.90;;;;;;5099051;28;20115;-73
2023/01/28 10:20:24;;;;;;;8.35;3.50;;;1.80;95.50;;;;;;5104177;28;20031;-72
2023/01/28 10:22:56;;;;;;;7.15;3.65;;;1.90;95.50;;;;;;5099652;28;20451;-74
2023/01/28 10:25:26;;;;;;;8.95;3.40;;;2.00;95.40;;;;;;5103173;28;20111;-73
2023/01/28 10:27:52;;;;;;;9.10;4.20;;;2.10;95.20;;;;;;5104223;28;20031;-74
2023/01/28 10:30:26;;;;;;;14.18;5.47;;;2.20;95.10;;;;;;5107953;28;20486;-70
2023/01/28 10:32:55;;;;;;;14.32;6.75;;;2.20;96.10;;;;;;5104403;28;20034;-73
2023/01/28 10:35:22;;;;;;;10.93;4.70;;;2.30;96.50;;;;;;5105255;28;20059;-71
2023/01/28 10:37:50;;;;;;;9.45;4.72;;;2.40;95.90;;;;;;5105935;28;20036;-73
2023/01/28 10:40:17;;;;;;;8.70;4.60;;;2.60;96.10;;;;;;5102045;28;20032;-73
2023/01/28 10:42:44;;;;;;;10.20;4.47;;;2.80;94.80;;;;;;5105517;27;20067;-72
2023/01/28 10:45:18;;;;;;;9.50;4.50;;;3.00;94.50;;;;;;5098861;27;20454;-71
2023/01/28 10:47:53;;;;;;;11.82;5.97;;;3.30;93.80;;;;;;5097691;27;20135;-73
2023/01/28 10:50:26;;;;;;;20.20;10.82;;;3.40;94.60;;;;;;5099245;27;20031;-71
2023/01/28 10:53:04;;;;;;;11.23;5.90;;;3.50;94.80;;;;;;5100392;27;20031;-71
2023/01/28 10:55:58;;;;;;;13.05;6.43;;;3.50;95.10;;;;;;5102157;27;20019;-70
2023/01/28 10:58:26;;;;;;;10.43;5.30;;;3.50;94.20;;;;;;5095384;27;20044;-71
2023/01/28 11:01:06;;;;;;;10.25;5.50;;;3.60;94.10;;;;;;5105988;28;20032;-70
2023/01/28 11:03:33;;;;;;;10.32;5.40;;;3.60;93.90;;;;;;5097635;27;20019;-73
2023/01/28 11:06:00;;;;;;;13.00;7.72;;;3.70;94.20;;;;;;5104112;28;20035;-73
2023/01/28 11:08:28;;;;;;;14.70;8.15;;;3.70;94.10;;;;;;5095714;27;20110;-70
2023/01/28 11:10:55;;;;;;;13.38;7.97;;;3.80;94.00;;;;;;5087345;28;20039;-73
2023/01/28 11:13:28;;;;;;;10.40;5.97;;;3.80;93.70;;;;;;5101788;27;20027;-70
2023/01/28 11:16:04;;;;;;;9.90;5.53;;;3.80;93.50;;;;;;5100101;27;20114;-71
2023/01/28 11:18:35;;;;;;;9.15;4.85;;;3.80;93.80;;;;;;5098070;27;20286;-71
2023/01/28 11:21:04;;;;;;;8.50;4.22;;;3.80;93.10;;;;;;5098750;27;20507;-70
2023/01/28 11:23:40;;;;;;;8.98;5.15;;;3.90;92.70;;;;;;5099167;27;20028;-71
2023/01/28 11:26:18;;;;;;;8.88;4.40;;;4.00;92.80;;;;;;5094536;27;20101;-72
2023/01/28 11:28:44;;;;;;;7.88;4.80;;;4.20;92.50;;;;;;5099792;28;20036;-71
2023/01/28 11:31:13;;;;;;;6.35;3.40;;;4.30;92.20;;;;;;5093443;28;20830;-71
2023/01/28 11:33:51;;;;;;;10.02;4.40;;;4.70;92.40;;;;;;5103458;27;20115;-71
2023/01/28 11:36:26;;;;;;;9.55;4.18;;;4.70;92.20;;;;;;5100511;28;20414;-71
2023/01/28 11:38:52;;;;;;;;;;;4.70;92.20;;;;;;5100450;28;20041;-70
2023/01/28 11:41:23;;;;;;;9.10;5.03;;;4.70;91.60;;;;;;5100455;28;20298;-71
2023/01/28 11:43:50;;;;;;;6.03;3.47;;;4.70;91.60;;;;;;5099765;27;20024;-71
2023/01/28 11:46:18;;;;;;;7.45;3.85;;;4.70;91.40;;;;;;5098062;27;20023;-73
2023/01/28 11:49:17;;;;;;;4.93;2.88;;;4.70;91.00;;;;;;5099840;28;20032;-72
2023/01/28 11:52:03;;;;;;;8.00;3.53;;;5.00;91.00;;;;;;5097836;28;20028;-72
2023/01/28 11:54:32;;;;;;;6.80;3.55;;;5.50;90.70;;;;;;5101919;28;20084;-72
2023/01/28 11:57:10;;;;;;;7.38;3.50;;;5.80;90.10;;;;;;5096013;27;20489;-73
2023/01/28 11:59:53;;;;;;;8.10;4.07;;;5.90;89.40;;;;;;5098527;27;20054;-72
2023/01/28 12:02:46;;;;;;;7.15;4.07;;;6.00;89.80;;;;;;5082452;28;20461;-71
2023/01/28 12:05:30;;;;;;;7.93;3.60;;;6.00;89.80;;;;;;5094628;28;20036;-71
2023/01/28 12:08:07;;;;;;;7.38;4.03;;;6.60;90.30;;;;;;5106056;28;20035;-71
2023/01/28 12:10:35;;;;;;;9.45;3.92;;;6.10;90.20;;;;;;5105242;28;20128;-71
2023/01/28 12:13:02;;;;;;;10.55;5.40;;;6.00;90.00;;;;;;5104182;27;20030;-70
2023/01/28 12:15:56;;;;;;;8.70;4.13;;;6.30;89.80;;;;;;5104463;27;20023;-72
2023/01/28 12:18:42;;;;;;;8.35;4.82;;;6.10;89.20;;;;;;5098387;28;20028;-72
2023/01/28 12:21:27;;;;;;;9.50;4.75;;;5.90;90.00;;;;;;5105432;28;20073;-72
2023/01/28 12:24:13;;;;;;;11.32;5.88;;;6.00;89.70;;;;;;5102070;27;20066;-73
2023/01/28 12:26:39;;;;;;;9.77;3.00;;;6.00;89.80;;;;;;5109412;28;20084;-72
2023/01/28 12:29:14;;;;;;;7.57;3.33;;;5.90;88.60;;;;;;5109053;28;20039;-72
2023/01/28 12:32:17;;;;;;;5.93;3.30;;;5.70;89.10;;;;;;5109202;28;20077;-72
2023/01/28 12:35:16;;;;;;;8.40;3.88;;;5.70;87.70;;;;;;5106527;28;20403;-75
2023/01/28 12:37:53;;;;;;;8.02;4.32;;;5.70;88.30;;;;;;5103804;28;20058;-76
2023/01/28 12:40:18;;;;;;;7.60;3.20;;;5.60;88.30;;;;;;5115137;28;20031;-76
2023/01/28 12:42:59;;;;;;;10.23;7.47;;;5.60;89.10;;;;;;5120357;27;20106;-75
2023/01/28 12:45:41;;;;;;;7.43;5.18;;;5.70;88.50;;;;;;5106345;28;20040;-75
2023/01/28 12:48:14;;;;;;;12.35;4.00;;;5.70;87.40;;;;;;5104747;27;20031;-74
2023/01/28 12:50:52;;;;;;;8.38;4.85;;;5.70;87.80;;;;;;5105038;28;20491;-74
2023/01/28 12:53:50;;;;;;;5.45;2.72;;;5.70;88.50;;;;;;5103503;28;20366;-73
2023/01/28 12:56:26;;;;;;;6.97;3.28;;;5.60;87.10;;;;;;5103571;28;20035;-73
2023/01/28 12:59:16;;;;;;;5.50;3.15;;;5.60;86.10;;;;;;5104708;28;20019;-73
2023/01/28 13:01:47;;;;;;;7.10;3.28;;;5.80;87.80;;;;;;5106131;28;20057;-74
2023/01/28 13:04:36;;;;;;;7.10;3.25;;;5.90;88.30;;;;;;5104999;28;20027;-73
2023/01/28 13:07:06;;;;;;;8.00;3.38;;;5.80;86.00;;;;;;5096121;28;20031;-73
2023/01/28 13:09:35;;;;;;;6.10;3.33;;;5.70;85.90;;;;;;5105132;28;20043;-71
2023/01/28 13:12:03;;;;;;;8.27;3.20;;;5.90;86.80;;;;;;5106818;27;20024;-72
2023/01/28 13:14:31;;;;;;;5.47;2.90;;;6.10;88.00;;;;;;5101325;28;20740;-72
2023/01/28 13:17:11;;;;;;;5.57;2.80;;;6.10;86.50;;;;;;5102408;28;20055;-72
2023/01/28 13:19:39;;;;;;;7.15;3.13;;;6.10;86.40;;;;;;5100170;28;20039;-72
2023/01/28 13:22:25;;;;;;;7.00;3.63;;;6.10;86.70;;;;;;5099329;28;20040;-71
2023/01/28 13:24:51;;;;;;;6.22;3.80;;;6.20;86.50;;;;;;5096598;28;20088;-72
2023/01/28 13:27:24;;;;;;;6.65;3.40;;;6.20;86.70;;;;;;5096761;28;20027;-72